sensor_id;sensor_type;location;lat;lon;timestamp;P1;durP1;ratioP1;P2;durP2;ratioP2
20462;SDS011;10390;53.566;9.980;2022-08-11T00:00:07;8.60;;;4.30;;
20462;SDS011;10390;53.566;9.980;2022-08-11T00:05:19;4.75;;;3.78;;
20462;SDS011;10390;53.566;9.980;2022-08-11T00:07:47;5.35;;;4.47;;
20462;SDS011;10390;53.566;9.980;2022-08-11T00:10:19;6.10;;;4.20;;
20462;SDS011;10390;53.566;9.980;2022-08-11T00:15:24;4.85;;;3.88;;
20462;SDS011;10390;53.566;9.980;2022-08-11T00:18:00;4.32;;;3.75;;
20462;SDS011;10390;53.566;9.980;2022-08-11T00:20:30;6.18;;;3.75;;
20462;SDS011;10390;53.566;9.980;2022-08-11T00:23:08;5.45;;;3.95;;
20462;SDS011;10390;53.566;9.980;2022-08-11T00:25:42;5.20;;;3.88;;
20462;SDS011;10390;53.566;9.980;2022-08-11T00:30:57;5.15;;;4.20;;
20462;SDS011;10390;53.566;9.980;2022-08-11T00:36:05;4.50;;;4.00;;
20462;SDS011;10390;53.566;9.980;2022-08-11T00:38:35;5.75;;;4.00;;
20462;SDS011;10390;53.566;9.980;2022-08-11T01:08:00;4.57;;;3.80;;
20462;SDS011;10390;53.566;9.980;2022-08-11T01:10:54;4.40;;;4.00;;
20462;SDS011;10390;53.566;9.980;2022-08-11T01:47:01;5.35;;;3.90;;
20462;SDS011;10390;53.566;9.980;2022-08-11T01:50:15;5.40;;;3.90;;
20462;SDS011;10390;53.566;9.980;2022-08-11T01:58:35;5.65;;;3.92;;
20462;SDS011;10390;53.566;9.980;2022-08-11T02:04:25;4.97;;;4.18;;
20462;SDS011;10390;53.566;9.980;2022-08-11T02:10:15;5.57;;;4.05;;
20462;SDS011;10390;53.566;9.980;2022-08-11T02:13:27;5.57;;;3.88;;
20462;SDS011;10390;53.566;9.980;2022-08-11T02:18:41;4.60;;;3.90;;
20462;SDS011;10390;53.566;9.980;2022-08-11T02:21:51;4.38;;;3.72;;
20462;SDS011;10390;53.566;9.980;2022-08-11T02:24:50;5.43;;;3.75;;
20462;SDS011;10390;53.566;9.980;2022-08-11T02:27:28;5.28;;;4.00;;
20462;SDS011;10390;53.566;9.980;2022-08-11T02:30:09;5.07;;;3.95;;
20462;SDS011;10390;53.566;9.980;2022-08-11T02:32:48;4.70;;;3.85;;
20462;SDS011;10390;53.566;9.980;2022-08-11T02:52:35;4.78;;;3.75;;
20462;SDS011;10390;53.566;9.980;2022-08-11T02:56:05;5.57;;;4.10;;
20462;SDS011;10390;53.566;9.980;2022-08-11T02:58:32;4.60;;;3.80;;
20462;SDS011;10390;53.566;9.980;2022-08-11T03:04:35;4.60;;;4.03;;
20462;SDS011;10390;53.566;9.980;2022-08-11T03:07:27;4.43;;;3.22;;
20462;SDS011;10390;53.566;9.980;2022-08-11T03:10:07;4.20;;;3.60;;
20462;SDS011;10390;53.566;9.980;2022-08-11T03:13:00;4.85;;;4.13;;
20462;SDS011;10390;53.566;9.980;2022-08-11T03:19:13;5.53;;;3.90;;
20462;SDS011;10390;53.566;9.980;2022-08-11T03:33:28;4.93;;;3.90;;
20462;SDS011;10390;53.566;9.980;2022-08-11T03:47:20;5.00;;;3.67;;
20462;SDS011;10390;53.566;9.980;2022-08-11T03:59:11;5.50;;;3.88;;
20462;SDS011;10390;53.566;9.980;2022-08-11T04:05:19;5.65;;;4.22;;
20462;SDS011;10390;53.566;9.980;2022-08-11T05:17:08;4.90;;;4.13;;
20462;SDS011;10390;53.566;9.980;2022-08-11T05:19:57;5.75;;;4.43;;
20462;SDS011;10390;53.566;9.980;2022-08-11T05:22:50;5.38;;;4.45;;
20462;SDS011;10390;53.566;9.980;2022-08-11T05:25:35;8.32;;;4.55;;
20462;SDS011;10390;53.566;9.980;2022-08-11T05:28:29;4.90;;;4.03;;
20462;SDS011;10390;53.566;9.980;2022-08-11T05:31:21;4.90;;;3.97;;
20462;SDS011;10390;53.566;9.980;2022-08-11T05:34:21;5.78;;;4.60;;
20462;SDS011;10390;53.566;9.980;2022-08-11T05:37:30;5.13;;;4.10;;
20462;SDS011;10390;53.566;9.980;2022-08-11T05:40:27;6.60;;;4.20;;
20462;SDS011;10390;53.566;9.980;2022-08-11T05:43:13;6.00;;;4.03;;
20462;SDS011;10390;53.566;9.980;2022-08-11T05:46:02;5.78;;;4.45;;
20462;SDS011;10390;53.566;9.980;2022-08-11T05:48:49;5.63;;;4.60;;
20462;SDS011;10390;53.566;9.980;2022-08-11T05:51:35;6.28;;;4.43;;
20462;SDS011;10390;53.566;9.980;2022-08-11T05:54:23;4.90;;;3.95;;
20462;SDS011;10390;53.566;9.980;2022-08-11T05:57:17;5.25;;;4.10;;
20462;SDS011;10390;53.566;9.980;2022-08-11T05:59:52;5.72;;;4.50;;
20462;SDS011;10390;53.566;9.980;2022-08-11T06:02:29;6.22;;;4.00;;
20462;SDS011;10390;53.566;9.980;2022-08-11T06:04:56;5.10;;;4.55;;
20462;SDS011;10390;53.566;9.980;2022-08-11T06:07:28;6.43;;;4.72;;
20462;SDS011;10390;53.566;9.980;2022-08-11T06:09:55;6.20;;;5.10;;
20462;SDS011;10390;53.566;9.980;2022-08-11T06:12:25;5.25;;;4.47;;
20462;SDS011;10390;53.566;9.980;2022-08-11T06:14:57;7.07;;;4.65;;
20462;SDS011;10390;53.566;9.980;2022-08-11T06:17:30;5.50;;;4.53;;
20462;SDS011;10390;53.566;9.980;2022-08-11T06:20:01;5.35;;;4.85;;
20462;SDS011;10390;53.566;9.980;2022-08-11T06:22:37;6.55;;;4.20;;
20462;SDS011;10390;53.566;9.980;2022-08-11T06:25:07;6.38;;;4.65;;
20462;SDS011;10390;53.566;9.980;2022-08-11T06:27:34;7.80;;;4.88;;
20462;SDS011;10390;53.566;9.980;2022-08-11T06:30:03;5.65;;;4.68;;
20462;SDS011;10390;53.566;9.980;2022-08-11T06:32:37;5.88;;;4.30;;
20462;SDS011;10390;53.566;9.980;2022-08-11T06:41:15;6.57;;;4.50;;
20462;SDS011;10390;53.566;9.980;2022-08-11T06:44:13;7.03;;;4.32;;
20462;SDS011;10390;53.566;9.980;2022-08-11T06:46:50;7.88;;;4.57;;
20462;SDS011;10390;53.566;9.980;2022-08-11T06:49:21;5.68;;;4.20;;
20462;SDS011;10390;53.566;9.980;2022-08-11T06:52:34;8.13;;;4.65;;
20462;SDS011;10390;53.566;9.980;2022-08-11T06:55:12;7.32;;;4.57;;
20462;SDS011;10390;53.566;9.980;2022-08-11T06:58:10;7.13;;;4.78;;
20462;SDS011;10390;53.566;9.980;2022-08-11T07:01:06;9.68;;;5.00;;
20462;SDS011;10390;53.566;9.980;2022-08-11T07:03:47;6.30;;;4.97;;
20462;SDS011;10390;53.566;9.980;2022-08-11T07:09:41;5.65;;;4.60;;
20462;SDS011;10390;53.566;9.980;2022-08-11T07:12:51;7.72;;;5.30;;
20462;SDS011;10390;53.566;9.980;2022-08-11T07:15:38;7.25;;;4.95;;
20462;SDS011;10390;53.566;9.980;2022-08-11T07:18:08;7.72;;;4.72;;
20462;SDS011;10390;53.566;9.980;2022-08-11T07:21:06;6.07;;;4.72;;
20462;SDS011;10390;53.566;9.980;2022-08-11T07:23:57;7.40;;;4.72;;
20462;SDS011;10390;53.566;9.980;2022-08-11T07:26:50;6.95;;;5.00;;
20462;SDS011;10390;53.566;9.980;2022-08-11T07:29:38;7.07;;;4.85;;
20462;SDS011;10390;53.566;9.980;2022-08-11T07:32:28;8.25;;;5.43;;
20462;SDS011;10390;53.566;9.980;2022-08-11T07:35:44;8.02;;;5.40;;
20462;SDS011;10390;53.566;9.980;2022-08-11T07:37:52;6.25;;;5.03;;
20462;SDS011;10390;53.566;9.980;2022-08-11T07:40:24;6.88;;;5.03;;
20462;SDS011;10390;53.566;9.980;2022-08-11T07:42:51;8.57;;;5.13;;
20462;SDS011;10390;53.566;9.980;2022-08-11T07:45:19;7.60;;;4.80;;
20462;SDS011;10390;53.566;9.980;2022-08-11T07:48:05;7.20;;;4.95;;
20462;SDS011;10390;53.566;9.980;2022-08-11T07:50:52;9.18;;;5.15;;
20462;SDS011;10390;53.566;9.980;2022-08-11T07:53:41;9.85;;;5.22;;
20462;SDS011;10390;53.566;9.980;2022-08-11T07:56:07;10.80;;;5.40;;
20462;SDS011;10390;53.566;9.980;2022-08-11T07:58:34;9.65;;;5.22;;
20462;SDS011;10390;53.566;9.980;2022-08-11T08:01:21;6.80;;;4.68;;
20462;SDS011;10390;53.566;9.980;2022-08-11T08:04:07;7.30;;;5.15;;
20462;SDS011;10390;53.566;9.980;2022-08-11T08:06:55;8.02;;;5.47;;
20462;SDS011;10390;53.566;9.980;2022-08-11T08:09:42;8.93;;;5.25;;
20462;SDS011;10390;53.566;9.980;2022-08-11T08:12:26;10.48;;;5.63;;
20462;SDS011;10390;53.566;9.980;2022-08-11T08:15:13;7.05;;;5.18;;
20462;SDS011;10390;53.566;9.980;2022-08-11T08:18:00;5.57;;;4.90;;
20462;SDS011;10390;53.566;9.980;2022-08-11T08:20:44;6.88;;;5.13;;
20462;SDS011;10390;53.566;9.980;2022-08-11T08:23:13;11.13;;;5.30;;
20462;SDS011;10390;53.566;9.980;2022-08-11T08:25:43;6.90;;;4.80;;
20462;SDS011;10390;53.566;9.980;2022-08-11T08:28:10;8.85;;;5.25;;
20462;SDS011;10390;53.566;9.980;2022-08-11T08:30:41;8.93;;;5.18;;
20462;SDS011;10390;53.566;9.980;2022-08-11T08:33:16;9.73;;;5.03;;
20462;SDS011;10390;53.566;9.980;2022-08-11T08:36:09;6.97;;;4.60;;
20462;SDS011;10390;53.566;9.980;2022-08-11T08:38:48;8.27;;;5.40;;
20462;SDS011;10390;53.566;9.980;2022-08-11T08:41:22;8.57;;;5.35;;
20462;SDS011;10390;53.566;9.980;2022-08-11T08:43:54;7.28;;;4.93;;
20462;SDS011;10390;53.566;9.980;2022-08-11T08:46:29;7.43;;;5.03;;
20462;SDS011;10390;53.566;9.980;2022-08-11T08:49:00;7.53;;;5.18;;
20462;SDS011;10390;53.566;9.980;2022-08-11T08:51:28;6.68;;;5.05;;
20462;SDS011;10390;53.566;9.980;2022-08-11T08:54:10;7.78;;;5.28;;
20462;SDS011;10390;53.566;9.980;2022-08-11T08:56:41;7.90;;;4.80;;
20462;SDS011;10390;53.566;9.980;2022-08-11T08:59:11;5.68;;;4.70;;
20462;SDS011;10390;53.566;9.980;2022-08-11T09:01:46;6.60;;;4.80;;
20462;SDS011;10390;53.566;9.980;2022-08-11T09:04:24;7.82;;;5.28;;
20462;SDS011;10390;53.566;9.980;2022-08-11T09:06:53;5.63;;;4.95;;
20462;SDS011;10390;53.566;9.980;2022-08-11T09:09:23;6.40;;;4.82;;
20462;SDS011;10390;53.566;9.980;2022-08-11T09:11:50;5.60;;;4.88;;
20462;SDS011;10390;53.566;9.980;2022-08-11T09:14:23;5.63;;;5.00;;
20462;SDS011;10390;53.566;9.980;2022-08-11T09:17:16;5.38;;;4.43;;
20462;SDS011;10390;53.566;9.980;2022-08-11T09:19:44;9.00;;;4.57;;
20462;SDS011;10390;53.566;9.980;2022-08-11T09:22:11;5.53;;;4.78;;
20462;SDS011;10390;53.566;9.980;2022-08-11T09:25:01;6.05;;;4.90;;
20462;SDS011;10390;53.566;9.980;2022-08-11T09:27:48;7.22;;;4.35;;
20462;SDS011;10390;53.566;9.980;2022-08-11T09:30:15;5.47;;;4.40;;
20462;SDS011;10390;53.566;9.980;2022-08-11T09:32:43;6.93;;;4.25;;
20462;SDS011;10390;53.566;9.980;2022-08-11T09:35:09;5.68;;;4.55;;
20462;SDS011;10390;53.566;9.980;2022-08-11T09:37:36;4.82;;;4.32;;
20462;SDS011;10390;53.566;9.980;2022-08-11T09:40:21;5.10;;;4.30;;
20462;SDS011;10390;53.566;9.980;2022-08-11T09:42:56;5.03;;;4.32;;
20462;SDS011;10390;53.566;9.980;2022-08-11T09:45:43;5.35;;;4.30;;
20462;SDS011;10390;53.566;9.980;2022-08-11T09:48:15;5.35;;;4.13;;
20462;SDS011;10390;53.566;9.980;2022-08-11T09:50:47;4.97;;;4.20;;
20462;SDS011;10390;53.566;9.980;2022-08-11T09:53:17;6.15;;;4.55;;
20462;SDS011;10390;53.566;9.980;2022-08-11T09:55:45;6.25;;;4.40;;
20462;SDS011;10390;53.566;9.980;2022-08-11T09:58:13;4.57;;;4.05;;
20462;SDS011;10390;53.566;9.980;2022-08-11T10:00:43;6.15;;;4.35;;
20462;SDS011;10390;53.566;9.980;2022-08-11T10:03:14;5.80;;;4.57;;
20462;SDS011;10390;53.566;9.980;2022-08-11T10:06:06;5.03;;;4.50;;
20462;SDS011;10390;53.566;9.980;2022-08-11T10:08:50;4.95;;;4.45;;
20462;SDS011;10390;53.566;9.980;2022-08-11T10:11:19;4.82;;;3.90;;
20462;SDS011;10390;53.566;9.980;2022-08-11T10:13:48;5.47;;;4.28;;
20462;SDS011;10390;53.566;9.980;2022-08-11T10:16:38;5.50;;;4.75;;
20462;SDS011;10390;53.566;9.980;2022-08-11T10:19:08;6.80;;;4.78;;
20462;SDS011;10390;53.566;9.980;2022-08-11T10:21:42;5.63;;;4.40;;
20462;SDS011;10390;53.566;9.980;2022-08-11T10:24:31;5.32;;;3.97;;
20462;SDS011;10390;53.566;9.980;2022-08-11T10:27:16;4.85;;;4.28;;
20462;SDS011;10390;53.566;9.980;2022-08-11T10:29:42;5.45;;;4.30;;
20462;SDS011;10390;53.566;9.980;2022-08-11T10:32:27;5.07;;;4.50;;
20462;SDS011;10390;53.566;9.980;2022-08-11T10:35:13;5.55;;;4.65;;
20462;SDS011;10390;53.566;9.980;2022-08-11T10:37:41;5.43;;;4.85;;
20462;SDS011;10390;53.566;9.980;2022-08-11T10:40:09;4.88;;;4.38;;
20462;SDS011;10390;53.566;9.980;2022-08-11T10:42:40;5.72;;;4.63;;
20462;SDS011;10390;53.566;9.980;2022-08-11T10:45:25;5.78;;;4.57;;
20462;SDS011;10390;53.566;9.980;2022-08-11T10:48:12;5.10;;;4.55;;
20462;SDS011;10390;53.566;9.980;2022-08-11T10:50:40;4.72;;;4.20;;
20462;SDS011;10390;53.566;9.980;2022-08-11T10:53:30;5.25;;;4.20;;
20462;SDS011;10390;53.566;9.980;2022-08-11T10:56:15;4.80;;;4.28;;
20462;SDS011;10390;53.566;9.980;2022-08-11T10:59:00;5.13;;;4.50;;
20462;SDS011;10390;53.566;9.980;2022-08-11T11:01:32;7.75;;;4.43;;
20462;SDS011;10390;53.566;9.980;2022-08-11T11:04:07;5.07;;;4.57;;
20462;SDS011;10390;53.566;9.980;2022-08-11T11:07:02;5.03;;;4.53;;
20462;SDS011;10390;53.566;9.980;2022-08-11T11:09:41;7.55;;;4.40;;
20462;SDS011;10390;53.566;9.980;2022-08-11T11:12:15;5.75;;;4.95;;
20462;SDS011;10390;53.566;9.980;2022-08-11T11:15:07;5.20;;;4.60;;
20462;SDS011;10390;53.566;9.980;2022-08-11T11:17:55;5.55;;;4.82;;
20462;SDS011;10390;53.566;9.980;2022-08-11T11:20:29;4.88;;;4.38;;
20462;SDS011;10390;53.566;9.980;2022-08-11T11:32:26;5.20;;;4.38;;
20462;SDS011;10390;53.566;9.980;2022-08-11T11:37:45;5.10;;;4.13;;
20462;SDS011;10390;53.566;9.980;2022-08-11T11:40:15;4.93;;;4.43;;
20462;SDS011;10390;53.566;9.980;2022-08-11T11:42:47;5.25;;;4.40;;
20462;SDS011;10390;53.566;9.980;2022-08-11T11:45:19;6.57;;;4.60;;
20462;SDS011;10390;53.566;9.980;2022-08-11T11:47:48;7.32;;;4.35;;
20462;SDS011;10390;53.566;9.980;2022-08-11T11:50:17;5.55;;;4.53;;
20462;SDS011;10390;53.566;9.980;2022-08-11T11:53:01;6.78;;;4.20;;
20462;SDS011;10390;53.566;9.980;2022-08-11T11:55:31;6.22;;;4.63;;
20462;SDS011;10390;53.566;9.980;2022-08-11T11:57:59;4.97;;;4.32;;
20462;SDS011;10390;53.566;9.980;2022-08-11T12:00:45;5.10;;;4.15;;
20462;SDS011;10390;53.566;9.980;2022-08-11T12:03:32;4.40;;;3.50;;
20462;SDS011;10390;53.566;9.980;2022-08-11T12:05:59;4.63;;;4.00;;
20462;SDS011;10390;53.566;9.980;2022-08-11T12:08:26;4.40;;;3.90;;
20462;SDS011;10390;53.566;9.980;2022-08-11T12:10:54;5.28;;;3.90;;
20462;SDS011;10390;53.566;9.980;2022-08-11T12:13:47;4.70;;;4.20;;
20462;SDS011;10390;53.566;9.980;2022-08-11T12:16:17;5.13;;;4.40;;
20462;SDS011;10390;53.566;9.980;2022-08-11T12:18:46;5.55;;;3.92;;
20462;SDS011;10390;53.566;9.980;2022-08-11T12:21:15;4.75;;;3.92;;
20462;SDS011;10390;53.566;9.980;2022-08-11T12:23:42;5.97;;;4.13;;
20462;SDS011;10390;53.566;9.980;2022-08-11T12:26:29;6.85;;;4.28;;
20462;SDS011;10390;53.566;9.980;2022-08-11T12:29:23;4.97;;;4.03;;
20462;SDS011;10390;53.566;9.980;2022-08-11T12:31:52;4.90;;;4.30;;
20462;SDS011;10390;53.566;9.980;2022-08-11T12:34:19;5.53;;;4.00;;
20462;SDS011;10390;53.566;9.980;2022-08-11T12:39:26;7.22;;;3.88;;
20462;SDS011;10390;53.566;9.980;2022-08-11T12:42:17;4.95;;;4.07;;
20462;SDS011;10390;53.566;9.980;2022-08-11T12:45:02;4.78;;;4.28;;
20462;SDS011;10390;53.566;9.980;2022-08-11T12:48:40;6.95;;;4.32;;
20462;SDS011;10390;53.566;9.980;2022-08-11T12:51:06;5.72;;;4.20;;
20462;SDS011;10390;53.566;9.980;2022-08-11T12:53:59;4.97;;;4.45;;
20462;SDS011;10390;53.566;9.980;2022-08-11T12:56:45;5.20;;;4.55;;
20462;SDS011;10390;53.566;9.980;2022-08-11T12:59:48;5.55;;;4.60;;
20462;SDS011;10390;53.566;9.980;2022-08-11T13:02:34;4.78;;;4.13;;
20462;SDS011;10390;53.566;9.980;2022-08-11T13:05:19;4.88;;;4.38;;
20462;SDS011;10390;53.566;9.980;2022-08-11T13:07:46;4.80;;;4.20;;
20462;SDS011;10390;53.566;9.980;2022-08-11T13:10:16;5.30;;;4.50;;
20462;SDS011;10390;53.566;9.980;2022-08-11T13:13:02;6.72;;;4.75;;
20462;SDS011;10390;53.566;9.980;2022-08-11T13:15:30;5.82;;;4.70;;
20462;SDS011;10390;53.566;9.980;2022-08-11T13:17:57;5.20;;;4.70;;
20462;SDS011;10390;53.566;9.980;2022-08-11T13:20:24;6.60;;;4.45;;
20462;SDS011;10390;53.566;9.980;2022-08-11T13:22:52;5.70;;;4.50;;
20462;SDS011;10390;53.566;9.980;2022-08-11T13:25:21;5.15;;;4.60;;
20462;SDS011;10390;53.566;9.980;2022-08-11T13:27:50;5.03;;;4.53;;
20462;SDS011;10390;53.566;9.980;2022-08-11T13:30:22;4.72;;;4.22;;
20462;SDS011;10390;53.566;9.980;2022-08-11T13:33:11;5.40;;;4.03;;
20462;SDS011;10390;53.566;9.980;2022-08-11T13:35:38;4.93;;;3.90;;
20462;SDS011;10390;53.566;9.980;2022-08-11T13:38:05;5.05;;;4.30;;
20462;SDS011;10390;53.566;9.980;2022-08-11T13:40:37;4.53;;;3.92;;
20462;SDS011;10390;53.566;9.980;2022-08-11T13:43:05;4.60;;;4.03;;
20462;SDS011;10390;53.566;9.980;2022-08-11T13:45:33;4.63;;;4.13;;
20462;SDS011;10390;53.566;9.980;2022-08-11T13:48:00;5.05;;;4.55;;
20462;SDS011;10390;53.566;9.980;2022-08-11T13:50:31;5.10;;;4.60;;
20462;SDS011;10390;53.566;9.980;2022-08-11T13:53:16;4.80;;;4.40;;
20462;SDS011;10390;53.566;9.980;2022-08-11T13:55:49;4.82;;;4.38;;
20462;SDS011;10390;53.566;9.980;2022-08-11T13:58:15;4.97;;;4.35;;
20462;SDS011;10390;53.566;9.980;2022-08-11T14:00:43;5.00;;;4.18;;
20462;SDS011;10390;53.566;9.980;2022-08-11T14:03:16;4.93;;;4.43;;
20462;SDS011;10390;53.566;9.980;2022-08-11T14:05:49;5.78;;;4.57;;
20462;SDS011;10390;53.566;9.980;2022-08-11T14:08:27;5.45;;;4.10;;
20462;SDS011;10390;53.566;9.980;2022-08-11T14:10:58;4.70;;;3.85;;
20462;SDS011;10390;53.566;9.980;2022-08-11T14:13:46;6.25;;;4.20;;
20462;SDS011;10390;53.566;9.980;2022-08-11T14:16:19;4.72;;;3.60;;
20462;SDS011;10390;53.566;9.980;2022-08-11T14:18:52;4.60;;;3.53;;
20462;SDS011;10390;53.566;9.980;2022-08-11T14:21:22;5.88;;;3.65;;
20462;SDS011;10390;53.566;9.980;2022-08-11T14:24:08;4.10;;;3.50;;
20462;SDS011;10390;53.566;9.980;2022-08-11T14:26:35;4.55;;;3.72;;
20462;SDS011;10390;53.566;9.980;2022-08-11T14:29:07;4.97;;;4.18;;
20462;SDS011;10390;53.566;9.980;2022-08-11T14:31:42;5.15;;;3.60;;
20462;SDS011;10390;53.566;9.980;2022-08-11T14:34:11;7.18;;;3.90;;
20462;SDS011;10390;53.566;9.980;2022-08-11T14:36:39;4.88;;;3.92;;
20462;SDS011;10390;53.566;9.980;2022-08-11T14:39:13;4.57;;;3.80;;
20462;SDS011;10390;53.566;9.980;2022-08-11T14:41:43;5.18;;;4.10;;
20462;SDS011;10390;53.566;9.980;2022-08-11T14:44:34;4.35;;;3.95;;
20462;SDS011;10390;53.566;9.980;2022-08-11T14:47:20;6.28;;;3.80;;
20462;SDS011;10390;53.566;9.980;2022-08-11T14:49:47;6.57;;;3.90;;
20462;SDS011;10390;53.566;9.980;2022-08-11T14:52:16;4.57;;;3.55;;
20462;SDS011;10390;53.566;9.980;2022-08-11T14:54:45;6.18;;;3.95;;
20462;SDS011;10390;53.566;9.980;2022-08-11T14:57:34;4.38;;;3.65;;
20462;SDS011;10390;53.566;9.980;2022-08-11T15:00:04;5.72;;;3.75;;
20462;SDS011;10390;53.566;9.980;2022-08-11T15:02:35;4.25;;;3.47;;
20462;SDS011;10390;53.566;9.980;2022-08-11T15:05:22;5.47;;;3.95;;
20462;SDS011;10390;53.566;9.980;2022-08-11T15:07:53;4.47;;;4.03;;
20462;SDS011;10390;53.566;9.980;2022-08-11T15:10:21;5.53;;;3.42;;
20462;SDS011;10390;53.566;9.980;2022-08-11T15:12:47;4.50;;;3.65;;
20462;SDS011;10390;53.566;9.980;2022-08-11T15:15:14;4.80;;;3.65;;
20462;SDS011;10390;53.566;9.980;2022-08-11T15:18:01;5.40;;;4.00;;
20462;SDS011;10390;53.566;9.980;2022-08-11T15:20:30;4.95;;;3.95;;
20462;SDS011;10390;53.566;9.980;2022-08-11T15:23:15;5.05;;;4.28;;
20462;SDS011;10390;53.566;9.980;2022-08-11T15:28:36;4.50;;;3.70;;
20462;SDS011;10390;53.566;9.980;2022-08-11T15:31:27;4.93;;;3.33;;
20462;SDS011;10390;53.566;9.980;2022-08-11T15:34:06;4.40;;;3.42;;
20462;SDS011;10390;53.566;9.980;2022-08-11T15:36:56;4.68;;;3.80;;
20462;SDS011;10390;53.566;9.980;2022-08-11T15:39:48;4.70;;;3.70;;
20462;SDS011;10390;53.566;9.980;2022-08-11T15:42:46;4.20;;;3.75;;
20462;SDS011;10390;53.566;9.980;2022-08-11T15:45:35;6.00;;;3.90;;
20462;SDS011;10390;53.566;9.980;2022-08-11T15:49:02;4.50;;;3.80;;
20462;SDS011;10390;53.566;9.980;2022-08-11T15:51:16;5.22;;;3.75;;
20462;SDS011;10390;53.566;9.980;2022-08-11T15:54:04;6.20;;;3.60;;
20462;SDS011;10390;53.566;9.980;2022-08-11T15:56:40;5.07;;;3.60;;
20462;SDS011;10390;53.566;9.980;2022-08-11T15:59:10;5.18;;;3.80;;
20462;SDS011;10390;53.566;9.980;2022-08-11T16:01:57;4.95;;;3.72;;
20462;SDS011;10390;53.566;9.980;2022-08-11T16:04:44;4.22;;;3.40;;
20462;SDS011;10390;53.566;9.980;2022-08-11T16:07:13;4.97;;;3.72;;
20462;SDS011;10390;53.566;9.980;2022-08-11T16:12:23;4.50;;;3.70;;
20462;SDS011;10390;53.566;9.980;2022-08-11T16:15:00;5.18;;;3.83;;
20462;SDS011;10390;53.566;9.980;2022-08-11T16:17:52;4.60;;;3.70;;
20462;SDS011;10390;53.566;9.980;2022-08-11T16:20:28;5.95;;;3.67;;
20462;SDS011;10390;53.566;9.980;2022-08-11T16:22:57;4.20;;;3.30;;
20462;SDS011;10390;53.566;9.980;2022-08-11T16:25:28;5.00;;;3.85;;
20462;SDS011;10390;53.566;9.980;2022-08-11T16:27:59;4.20;;;3.70;;
20462;SDS011;10390;53.566;9.980;2022-08-11T16:30:35;4.13;;;3.50;;
20462;SDS011;10390;53.566;9.980;2022-08-11T16:33:05;4.50;;;3.88;;
20462;SDS011;10390;53.566;9.980;2022-08-11T16:35:34;6.20;;;3.80;;
20462;SDS011;10390;53.566;9.980;2022-08-11T16:38:21;5.85;;;4.20;;
20462;SDS011;10390;53.566;9.980;2022-08-11T16:41:08;4.57;;;3.58;;
20462;SDS011;10390;53.566;9.980;2022-08-11T16:44:01;4.50;;;3.88;;
20462;SDS011;10390;53.566;9.980;2022-08-11T16:46:46;6.78;;;3.67;;
20462;SDS011;10390;53.566;9.980;2022-08-11T16:49:28;5.65;;;3.80;;
20462;SDS011;10390;53.566;9.980;2022-08-11T16:51:58;7.10;;;3.72;;
20462;SDS011;10390;53.566;9.980;2022-08-11T16:54:34;5.85;;;3.83;;
20462;SDS011;10390;53.566;9.980;2022-08-11T16:57:02;5.63;;;3.60;;
20462;SDS011;10390;53.566;9.980;2022-08-11T16:59:53;4.80;;;3.70;;
20462;SDS011;10390;53.566;9.980;2022-08-11T17:02:23;5.65;;;3.40;;
20462;SDS011;10390;53.566;9.980;2022-08-11T17:05:16;5.75;;;4.00;;
20462;SDS011;10390;53.566;9.980;2022-08-11T17:08:04;7.47;;;3.92;;
20462;SDS011;10390;53.566;9.980;2022-08-11T17:10:53;5.82;;;3.58;;
20462;SDS011;10390;53.566;9.980;2022-08-11T17:13:49;6.10;;;4.03;;
20462;SDS011;10390;53.566;9.980;2022-08-11T17:16:31;6.13;;;3.40;;
20462;SDS011;10390;53.566;9.980;2022-08-11T17:19:02;4.43;;;3.13;;
20462;SDS011;10390;53.566;9.980;2022-08-11T17:21:40;5.03;;;3.50;;
20462;SDS011;10390;53.566;9.980;2022-08-11T17:24:32;7.50;;;3.60;;
20462;SDS011;10390;53.566;9.980;2022-08-11T17:27:06;4.63;;;3.35;;
20462;SDS011;10390;53.566;9.980;2022-08-11T17:29:34;7.25;;;3.50;;
20462;SDS011;10390;53.566;9.980;2022-08-11T17:32:10;5.32;;;3.33;;
20462;SDS011;10390;53.566;9.980;2022-08-11T17:35:00;5.15;;;3.67;;
20462;SDS011;10390;53.566;9.980;2022-08-11T17:37:53;6.80;;;3.78;;
20462;SDS011;10390;53.566;9.980;2022-08-11T17:40:28;6.15;;;3.63;;
20462;SDS011;10390;53.566;9.980;2022-08-11T17:42:57;4.93;;;3.50;;
20462;SDS011;10390;53.566;9.980;2022-08-11T17:45:46;5.95;;;3.25;;
20462;SDS011;10390;53.566;9.980;2022-08-11T17:48:39;6.43;;;3.40;;
20462;SDS011;10390;53.566;9.980;2022-08-11T17:51:11;5.40;;;3.72;;
20462;SDS011;10390;53.566;9.980;2022-08-11T17:54:03;5.95;;;3.70;;
20462;SDS011;10390;53.566;9.980;2022-08-11T17:56:49;5.18;;;3.50;;
20462;SDS011;10390;53.566;9.980;2022-08-11T17:59:36;4.88;;;3.45;;
20462;SDS011;10390;53.566;9.980;2022-08-11T18:05:17;4.93;;;3.53;;
20462;SDS011;10390;53.566;9.980;2022-08-11T18:07:47;5.40;;;3.28;;
20462;SDS011;10390;53.566;9.980;2022-08-11T18:10:37;4.32;;;3.28;;
20462;SDS011;10390;53.566;9.980;2022-08-11T18:13:23;6.43;;;3.70;;
20462;SDS011;10390;53.566;9.980;2022-08-11T18:16:10;4.55;;;3.20;;
20462;SDS011;10390;53.566;9.980;2022-08-11T18:18:55;4.40;;;3.35;;
20462;SDS011;10390;53.566;9.980;2022-08-11T18:21:44;5.63;;;3.40;;
20462;SDS011;10390;53.566;9.980;2022-08-11T18:24:36;4.68;;;3.85;;
20462;SDS011;10390;53.566;9.980;2022-08-11T18:27:26;6.70;;;3.63;;
20462;SDS011;10390;53.566;9.980;2022-08-11T18:30:14;4.60;;;3.53;;
20462;SDS011;10390;53.566;9.980;2022-08-11T18:32:59;4.82;;;3.40;;
20462;SDS011;10390;53.566;9.980;2022-08-11T18:35:49;5.10;;;3.63;;
20462;SDS011;10390;53.566;9.980;2022-08-11T18:38:41;4.95;;;3.53;;
20462;SDS011;10390;53.566;9.980;2022-08-11T18:41:30;4.90;;;3.40;;
20462;SDS011;10390;53.566;9.980;2022-08-11T18:44:18;5.80;;;3.30;;
20462;SDS011;10390;53.566;9.980;2022-08-11T18:47:10;4.97;;;3.40;;
20462;SDS011;10390;53.566;9.980;2022-08-11T18:49:57;5.38;;;3.45;;
20462;SDS011;10390;53.566;9.980;2022-08-11T18:52:44;5.47;;;3.50;;
20462;SDS011;10390;53.566;9.980;2022-08-11T18:55:34;5.60;;;3.70;;
20462;SDS011;10390;53.566;9.980;2022-08-11T18:58:20;4.22;;;3.30;;
20462;SDS011;10390;53.566;9.980;2022-08-11T19:01:13;7.18;;;3.72;;
20462;SDS011;10390;53.566;9.980;2022-08-11T19:04:01;8.02;;;3.55;;
20462;SDS011;10390;53.566;9.980;2022-08-11T19:06:49;5.43;;;3.20;;
20462;SDS011;10390;53.566;9.980;2022-08-11T19:09:42;4.80;;;3.38;;
20462;SDS011;10390;53.566;9.980;2022-08-11T19:12:29;4.97;;;3.58;;
20462;SDS011;10390;53.566;9.980;2022-08-11T19:15:18;7.70;;;3.50;;
20462;SDS011;10390;53.566;9.980;2022-08-11T19:18:04;4.47;;;3.40;;
20462;SDS011;10390;53.566;9.980;2022-08-11T19:20:50;10.00;;;3.53;;
20462;SDS011;10390;53.566;9.980;2022-08-11T19:23:37;5.05;;;3.50;;
20462;SDS011;10390;53.566;9.980;2022-08-11T19:26:27;5.82;;;3.50;;
20462;SDS011;10390;53.566;9.980;2022-08-11T19:29:13;7.85;;;3.30;;
20462;SDS011;10390;53.566;9.980;2022-08-11T19:31:59;5.05;;;3.33;;
20462;SDS011;10390;53.566;9.980;2022-08-11T19:34:44;5.57;;;3.60;;
20462;SDS011;10390;53.566;9.980;2022-08-11T19:37:30;4.93;;;3.50;;
20462;SDS011;10390;53.566;9.980;2022-08-11T19:40:17;5.18;;;3.08;;
20462;SDS011;10390;53.566;9.980;2022-08-11T19:43:03;7.90;;;3.72;;
20462;SDS011;10390;53.566;9.980;2022-08-11T19:45:50;6.78;;;3.40;;
20462;SDS011;10390;53.566;9.980;2022-08-11T19:48:37;4.70;;;3.30;;
20462;SDS011;10390;53.566;9.980;2022-08-11T19:51:23;7.55;;;3.53;;
20462;SDS011;10390;53.566;9.980;2022-08-11T19:54:07;5.00;;;3.35;;
20462;SDS011;10390;53.566;9.980;2022-08-11T19:56:52;5.55;;;3.40;;
20462;SDS011;10390;53.566;9.980;2022-08-11T19:59:37;4.45;;;3.15;;
20462;SDS011;10390;53.566;9.980;2022-08-11T20:02:23;5.97;;;3.63;;
20462;SDS011;10390;53.566;9.980;2022-08-11T20:05:07;5.00;;;3.53;;
20462;SDS011;10390;53.566;9.980;2022-08-11T20:07:52;7.03;;;3.70;;
20462;SDS011;10390;53.566;9.980;2022-08-11T20:10:39;5.40;;;3.78;;